createdAt,value
2022-12-25T00:00:20.222Z,97730.75
2022-12-25T00:02:48.652Z,97725.75
2022-12-25T00:05:16.541Z,97728.59
2022-12-25T00:07:44.534Z,97733.94
2022-12-25T00:10:12.779Z,97741.56
2022-12-25T00:12:41.402Z,97737.09
2022-12-25T00:15:09.727Z,97727.88
2022-12-25T00:17:37.667Z,97738.56
2022-12-25T00:20:06.846Z,97729.41
2022-12-25T00:22:34.791Z,97720.69
2022-12-25T00:25:02.611Z,97723.84
2022-12-25T00:27:33.905Z,97719.31
2022-12-25T00:30:01.854Z,97728.19
2022-12-25T00:32:29.934Z,97716.66
2022-12-25T00:34:57.709Z,97715.66
2022-12-25T00:37:25.500Z,97719.31
2022-12-25T00:39:53.206Z,97716.47
2022-12-25T00:42:20.993Z,97725.16
2022-12-25T00:44:50.336Z,97719.31
2022-12-25T00:47:18.826Z,97724.50
2022-12-25T00:49:46.695Z,97729.50
2022-12-25T00:52:14.721Z,97732.47
2022-12-25T00:54:42.445Z,97735.13
2022-12-25T00:57:10.301Z,97727.13
2022-12-25T00:59:38.098Z,97731.66
2022-12-25T01:02:24.165Z,97724.44
2022-12-25T01:04:55.435Z,97722.81
2022-12-25T01:07:26.421Z,97719.09
2022-12-25T01:10:13.029Z,97713.59
2022-12-25T01:12:42.715Z,97718.59
2022-12-25T01:15:12.299Z,97725.59
2022-12-25T01:17:40.551Z,97727.09
2022-12-25T01:20:09.632Z,97730.94
2022-12-25T01:22:37.426Z,97724.44
2022-12-25T01:25:07.197Z,97733.97
2022-12-25T01:27:35.381Z,97730.59
2022-12-25T01:30:03.781Z,97731.59
2022-12-25T01:32:31.802Z,97737.78
2022-12-25T01:35:00.166Z,97743.97
2022-12-25T01:37:27.899Z,97746.81
2022-12-25T01:39:55.729Z,97748.00
2022-12-25T01:42:24.124Z,97751.00
2022-12-25T01:44:51.780Z,97749.00
2022-12-25T01:47:19.604Z,97743.66
2022-12-25T01:49:50.633Z,97737.00
2022-12-25T01:52:24.673Z,97733.88
2022-12-25T01:55:04.171Z,97738.41
2022-12-25T01:57:36.013Z,97742.22
2022-12-25T02:00:07.533Z,97743.69
2022-12-25T02:02:36.402Z,97745.00
2022-12-25T02:05:15.911Z,97755.38
2022-12-25T02:07:44.419Z,97749.47
2022-12-25T02:10:12.908Z,97747.47
2022-12-25T02:12:42.563Z,97741.97
2022-12-25T02:15:18.080Z,97740.13
2022-12-25T02:18:09.276Z,97744.66
2022-12-25T02:20:43.042Z,97745.31
2022-12-25T02:23:56.251Z,97743.47
2022-12-25T02:27:01.212Z,97736.94
2022-12-25T02:30:10.152Z,97734.28
2022-12-25T02:32:51.828Z,97738.59
2022-12-25T02:35:30.992Z,97731.59
2022-12-25T02:38:10.547Z,97739.41
2022-12-25T02:40:49.343Z,97734.94
2022-12-25T02:43:59.463Z,97727.25
2022-12-25T02:46:59.710Z,97730.09
2022-12-25T02:49:47.652Z,97728.44
2022-12-25T02:52:39.319Z,97731.75
2022-12-25T02:55:31.022Z,97733.97
2022-12-25T02:58:22.693Z,97733.13
2022-12-25T03:01:20.076Z,97723.78
2022-12-25T03:04:12.421Z,97722.91
2022-12-25T03:06:46.443Z,97726.63
2022-12-25T03:09:43.261Z,97714.06
2022-12-25T03:12:21.718Z,97706.06
2022-12-25T03:15:08.371Z,97700.88
2022-12-25T03:17:36.560Z,97706.38
2022-12-25T03:20:26.925Z,97700.22
2022-12-25T03:23:14.620Z,97687.56
2022-12-25T03:26:01.241Z,97681.31
2022-12-25T03:28:29.604Z,97687.41
2022-12-25T03:31:21.865Z,97684.47
2022-12-25T03:34:27.836Z,97679.28
2022-12-25T03:37:42.819Z,97672.13
2022-12-25T03:41:08.700Z,97665.31
2022-12-25T03:44:40.120Z,97660.47
2022-12-25T03:47:35.608Z,97664.28
2022-12-25T03:50:28.826Z,97685.16
2022-12-25T03:53:17.925Z,97680.19
2022-12-25T03:56:04.386Z,97665.81
2022-12-25T03:58:50.884Z,97665.47
2022-12-25T04:01:37.946Z,97667.31
2022-12-25T04:04:24.320Z,97673.66
2022-12-25T04:07:10.706Z,97679.38
2022-12-25T04:09:57.137Z,97677.03
2022-12-25T04:12:43.538Z,97667.81
2022-12-25T04:15:30.346Z,97667.00
2022-12-25T04:18:16.489Z,97666.34
2022-12-25T04:21:03.042Z,97657.81
2022-12-25T04:23:49.045Z,97661.50
2022-12-25T04:26:35.523Z,97662.81
2022-12-25T04:29:22.176Z,97661.13
2022-12-25T04:32:08.615Z,97641.97
2022-12-25T04:35:08.745Z,97651.16
2022-12-25T04:37:36.445Z,97655.84
2022-12-25T04:40:05.138Z,97646.50
2022-12-25T04:42:32.949Z,97647.53
2022-12-25T04:45:00.669Z,97648.53
2022-12-25T04:47:28.383Z,97649.66
2022-12-25T04:49:56.155Z,97655.00
2022-12-25T04:52:23.919Z,97655.50
2022-12-25T04:54:51.760Z,97656.81
2022-12-25T04:57:19.480Z,97651.09
2022-12-25T04:59:47.235Z,97644.59
2022-12-25T05:02:15.322Z,97637.09
2022-12-25T05:04:43.219Z,97648.09
2022-12-25T05:07:10.982Z,97645.09
2022-12-25T05:09:41.810Z,97633.72
2022-12-25T05:12:10.793Z,97632.03
2022-12-25T05:14:40.058Z,97632.03
2022-12-25T05:17:08.167Z,97638.88
2022-12-25T05:19:35.941Z,97632.50
2022-12-25T05:22:03.659Z,97627.34
2022-12-25T05:24:31.533Z,97624.88
2022-12-25T05:26:59.274Z,97632.03
2022-12-25T05:29:27.102Z,97632.22
2022-12-25T05:31:54.831Z,97632.69
2022-12-25T05:34:22.717Z,97632.69
2022-12-25T05:36:50.515Z,97632.88
2022-12-25T05:39:18.448Z,97631.53
2022-12-25T05:41:46.193Z,97637.91
2022-12-25T05:44:14.376Z,97630.88
2022-12-25T05:46:42.625Z,97624.00
2022-12-25T05:49:10.426Z,97621.88
2022-12-25T05:51:38.181Z,97612.69
2022-12-25T05:54:06.113Z,97617.38
2022-12-25T05:56:33.904Z,97614.19
2022-12-25T05:59:01.652Z,97610.50
2022-12-25T06:01:29.871Z,97603.78
2022-12-25T06:03:57.892Z,97606.13
2022-12-25T06:06:25.866Z,97601.75
2022-12-25T06:08:55.314Z,97600.38
2022-12-25T06:11:23.200Z,97595.31
2022-12-25T06:13:52.376Z,97599.94
2022-12-25T06:16:20.708Z,97596.28
2022-12-25T06:18:52.243Z,97591.75
2022-12-25T06:21:20.413Z,97587.72
2022-12-25T06:23:48.267Z,97587.53
2022-12-25T06:26:19.264Z,97586.72
2022-12-25T06:28:47.730Z,97585.03
2022-12-25T06:31:19.719Z,97582.19
2022-12-25T06:33:48.333Z,97577.50
2022-12-25T06:36:22.740Z,97593.03
2022-12-25T06:38:51.002Z,97586.81
2022-12-25T06:41:25.735Z,97580.66
2022-12-25T06:43:59.415Z,97589.97
2022-12-25T06:46:29.873Z,97588.78
2022-12-25T06:48:59.502Z,97592.47
2022-12-25T06:51:31.430Z,97591.81
2022-12-25T06:54:03.105Z,97595.97
2022-12-25T06:56:33.133Z,97598.47
2022-12-25T06:59:07.625Z,97598.28
2022-12-25T07:01:57.517Z,97609.97
2022-12-25T07:04:38.998Z,97597.75
2022-12-25T07:07:09.563Z,97604.63
2022-12-25T07:09:42.449Z,97600.09
2022-12-25T07:12:17.120Z,97598.06
2022-12-25T07:14:50.111Z,97601.56
2022-12-25T07:17:19.856Z,97601.22
2022-12-25T07:19:48.009Z,97595.88
2022-12-25T07:22:16.628Z,97591.34
2022-12-25T07:24:44.378Z,97587.66
2022-12-25T07:27:12.186Z,97576.13
2022-12-25T07:29:39.931Z,97575.31
2022-12-25T07:32:07.928Z,97568.19
2022-12-25T07:34:35.775Z,97570.34
2022-12-25T07:37:03.713Z,97574.75
2022-12-25T07:39:31.488Z,97572.06
2022-12-25T07:41:59.212Z,97575.22
2022-12-25T07:44:28.566Z,97572.38
2022-12-25T07:46:56.350Z,97575.53
2022-12-25T07:49:24.104Z,97568.03
2022-12-25T07:51:51.871Z,97571.69
2022-12-25T07:54:19.781Z,97562.66
2022-12-25T07:56:54.028Z,97561.34
2022-12-25T07:59:21.842Z,97568.88
2022-12-25T08:01:50.737Z,97580.94
2022-12-25T08:04:18.782Z,97581.59
2022-12-25T08:06:46.562Z,97589.25
2022-12-25T08:09:14.369Z,97590.75
2022-12-25T08:11:46.923Z,97585.56
2022-12-25T08:14:15.310Z,97585.28
2022-12-25T08:16:43.170Z,97593.28
2022-12-25T08:19:11.574Z,97594.78
2022-12-25T08:21:39.378Z,97597.09
2022-12-25T08:24:07.386Z,97596.09
2022-12-25T08:26:35.249Z,97600.09
2022-12-25T08:29:03.338Z,97587.56
2022-12-25T08:31:33.412Z,97593.06
2022-12-25T08:34:03.346Z,97591.06
2022-12-25T08:36:31.205Z,97592.00
2022-12-25T08:39:02.991Z,97592.31
2022-12-25T08:41:32.368Z,97599.94
2022-12-25T08:44:00.115Z,97603.47
2022-12-25T08:46:27.864Z,97593.44
2022-12-25T08:48:56.773Z,97593.94
2022-12-25T08:51:26.082Z,97590.44
2022-12-25T08:53:59.431Z,97581.59
2022-12-25T08:56:27.448Z,97574.41
2022-12-25T08:58:55.258Z,97565.75
2022-12-25T09:01:23.736Z,97555.56
2022-12-25T09:03:51.657Z,97543.41
2022-12-25T09:06:19.451Z,97536.09
2022-12-25T09:08:49.642Z,97533.59
2022-12-25T09:11:19.746Z,97541.13
2022-12-25T09:13:48.857Z,97548.97
2022-12-25T09:16:21.740Z,97547.28
2022-12-25T09:18:49.953Z,97538.88
2022-12-25T09:21:19.087Z,97554.28
2022-12-25T09:23:46.962Z,97555.78
2022-12-25T09:26:18.470Z,97558.16
2022-12-25T09:28:51.218Z,97562.28
2022-12-25T09:31:22.606Z,97558.06
2022-12-25T09:33:51.751Z,97559.56
2022-12-25T09:36:21.552Z,97555.69
2022-12-25T09:38:49.474Z,97555.50
2022-12-25T09:41:45.450Z,97554.78
2022-12-25T09:44:42.506Z,97564.56
2022-12-25T09:47:27.501Z,97563.84
2022-12-25T09:50:47.710Z,97566.34
2022-12-25T09:53:25.099Z,97562.09
2022-12-25T09:56:16.772Z,97558.22
2022-12-25T09:58:45.060Z,97563.69
2022-12-25T10:01:12.785Z,97548.72
2022-12-25T10:04:26.295Z,97541.78
2022-12-25T10:06:56.655Z,97548.06
2022-12-25T10:09:59.736Z,97538.19
2022-12-25T10:12:45.579Z,97535.78
2022-12-25T10:15:48.051Z,97523.69
2022-12-25T10:18:44.759Z,97520.66
2022-12-25T10:21:18.415Z,97520.91
2022-12-25T10:24:18.314Z,97522.75
2022-12-25T10:26:46.813Z,97514.78
2022-12-25T10:29:21.392Z,97508.06
2022-12-25T10:31:53.384Z,97509.16
2022-12-25T10:34:21.924Z,97503.06
2022-12-25T10:36:50.432Z,97499.72
2022-12-25T10:39:21.808Z,97491.31
2022-12-25T10:42:11.231Z,97490.53
2022-12-25T10:44:39.047Z,97490.16
2022-12-25T10:47:06.796Z,97481.41
2022-12-25T10:49:39.329Z,97467.06
2022-12-25T10:52:26.464Z,97473.94
2022-12-25T10:54:55.006Z,97471.75
2022-12-25T10:57:26.140Z,97461.31
2022-12-25T10:59:57.564Z,97461.78
2022-12-25T11:02:39.286Z,97463.31
2022-12-25T11:05:09.406Z,97453.25
2022-12-25T11:07:50.813Z,97465.69
2022-12-25T11:10:26.173Z,97462.88
2022-12-25T11:12:54.415Z,97457.56
2022-12-25T11:15:40.460Z,97461.28
2022-12-25T11:18:25.867Z,97459.44
2022-12-25T11:20:59.974Z,97463.59
2022-12-25T11:23:31.662Z,97452.72
2022-12-25T11:26:04.345Z,97448.41
2022-12-25T11:28:37.686Z,97442.44
2022-12-25T11:31:13.220Z,97439.19
2022-12-25T11:34:41.292Z,97440.03
2022-12-25T11:37:20.220Z,97440.03
2022-12-25T11:39:48.220Z,97430.75
2022-12-25T11:42:36.656Z,97423.34
2022-12-25T11:45:24.327Z,97416.13
2022-12-25T11:48:17.255Z,97403.97
2022-12-25T11:50:59.324Z,97406.03
2022-12-25T11:53:39.743Z,97401.72
2022-12-25T11:56:28.712Z,97399.25
2022-12-25T11:59:30.336Z,97392.88
2022-12-25T12:02:09.621Z,97382.75
2022-12-25T12:04:43.444Z,97373.06
2022-12-25T12:07:25.609Z,97363.97
2022-12-25T12:10:21.532Z,97373.72
2022-12-25T12:13:00.408Z,97372.47
2022-12-25T12:15:47.543Z,97357.19
2022-12-25T12:18:26.778Z,97364.44
2022-12-25T12:21:06.949Z,97353.88
2022-12-25T12:24:15.830Z,97343.75
2022-12-25T12:26:46.312Z,97343.75
2022-12-25T12:29:37.588Z,97345.22
2022-12-25T12:32:06.517Z,97351.00
2022-12-25T12:34:48.062Z,97357.81
2022-12-25T12:37:52.253Z,97357.19
2022-12-25T12:40:57.903Z,97365.69
2022-12-25T12:43:35.576Z,97353.69
2022-12-25T12:46:27.672Z,97358.63
2022-12-25T12:49:28.129Z,97350.38
2022-12-25T12:52:31.200Z,97352.06
2022-12-25T12:55:15.023Z,97349.75
2022-12-25T12:57:43.131Z,97344.38
2022-12-25T13:00:21.280Z,97347.47
2022-12-25T13:03:21.989Z,97345.22
2022-12-25T13:06:12.872Z,97336.91
2022-12-25T13:09:06.693Z,97326.34
2022-12-25T13:11:42.070Z,97326.13
2022-12-25T13:14:18.533Z,97325.91
2022-12-25T13:16:49.721Z,97323.63
2022-12-25T13:19:26.895Z,97324.84
2022-12-25T13:22:05.137Z,97325.88
2022-12-25T13:24:37.254Z,97332.91
2022-12-25T13:27:30.473Z,97343.03
2022-12-25T13:29:59.609Z,97334.94
2022-12-25T13:32:31.810Z,97341.78
2022-12-25T13:35:00.458Z,97348.19
2022-12-25T13:37:31.376Z,97353.31
2022-12-25T13:40:06.628Z,97361.19
2022-12-25T13:42:37.757Z,97357.03
2022-12-25T13:45:21.165Z,97343.72
2022-12-25T13:47:55.256Z,97343.94
2022-12-25T13:50:33.551Z,97346.19
2022-12-25T13:53:16.493Z,97338.72
2022-12-25T13:55:55.924Z,97339.97
2022-12-25T13:58:30.778Z,97338.50
2022-12-25T14:01:01.263Z,97339.53
2022-12-25T14:03:41.131Z,97331.69
2022-12-25T14:06:29.389Z,97334.16
2022-12-25T14:08:58.933Z,97335.63
2022-12-25T14:11:31.350Z,97334.41
2022-12-25T14:14:05.819Z,97330.72
2022-12-25T14:16:34.912Z,97328.03
2022-12-25T14:19:03.740Z,97328.91
2022-12-25T14:21:38.579Z,97323.97
2022-12-25T14:24:15.008Z,97322.69
2022-12-25T14:26:43.507Z,97324.16
2022-12-25T14:29:19.722Z,97326.09
2022-12-25T14:31:49.306Z,97323.81
2022-12-25T14:34:24.891Z,97328.16
2022-12-25T14:36:53.667Z,97326.94
2022-12-25T14:39:36.444Z,97327.59
2022-12-25T14:42:26.078Z,97330.88
2022-12-25T14:45:07.892Z,97332.16
2022-12-25T14:47:52.468Z,97327.81
2022-12-25T14:50:29.507Z,97329.06
2022-12-25T14:52:58.864Z,97327.00
2022-12-25T14:55:29.863Z,97330.13
2022-12-25T14:58:07.776Z,97327.63
2022-12-25T15:00:38.527Z,97331.78
2022-12-25T15:03:29.907Z,97333.84
2022-12-25T15:06:01.378Z,97337.34
2022-12-25T15:08:30.971Z,97324.56
2022-12-25T15:11:01.680Z,97328.25
2022-12-25T15:13:31.782Z,97325.75
2022-12-25T15:16:32.828Z,97333.41
2022-12-25T15:19:01.965Z,97331.75
2022-12-25T15:21:33.830Z,97329.47
2022-12-25T15:24:01.874Z,97336.91
2022-12-25T15:26:31.887Z,97334.44
2022-12-25T15:28:59.670Z,97343.75
2022-12-25T15:31:31.865Z,97341.25
2022-12-25T15:34:03.362Z,97340.63
2022-12-25T15:36:31.175Z,97328.25
2022-12-25T15:38:58.909Z,97333.84
2022-12-25T15:41:53.858Z,97330.31
2022-12-25T15:44:23.245Z,97341.91
2022-12-25T15:46:51.804Z,97340.66
2022-12-25T15:49:19.638Z,97340.84
2022-12-25T15:51:47.487Z,97349.13
2022-12-25T15:54:15.294Z,97346.44
2022-12-25T15:56:46.357Z,97359.88
2022-12-25T15:59:16.549Z,97371.88
2022-12-25T16:01:56.733Z,97361.31
2022-12-25T16:04:27.992Z,97358.00
2022-12-25T16:06:56.520Z,97360.28
2022-12-25T16:09:24.347Z,97362.16
2022-12-25T16:11:52.122Z,97361.94
2022-12-25T16:14:20.139Z,97373.50
2022-12-25T16:16:47.900Z,97374.75
2022-12-25T16:19:15.701Z,97377.44
2022-12-25T16:21:46.454Z,97370.19
2022-12-25T16:24:14.423Z,97369.16
2022-12-25T16:26:43.184Z,97360.91
2022-12-25T16:29:11.349Z,97372.25
2022-12-25T16:31:41.226Z,97372.47
2022-12-25T16:34:09.841Z,97370.81
2022-12-25T16:36:38.088Z,97369.38
2022-12-25T16:39:06.109Z,97382.19
2022-12-25T16:41:34.182Z,97384.25
2022-12-25T16:44:11.951Z,97386.94
2022-12-25T16:46:40.469Z,97395.00
2022-12-25T16:49:08.814Z,97381.78
2022-12-25T16:51:36.621Z,97379.28
2022-12-25T16:54:04.590Z,97375.16
2022-12-25T16:56:32.468Z,97371.84
2022-12-25T16:59:01.096Z,97375.56
2022-12-25T17:01:29.315Z,97362.53
2022-12-25T17:04:01.578Z,97362.31
2022-12-25T17:06:29.602Z,97360.22
2022-12-25T17:09:00.344Z,97354.66
2022-12-25T17:11:30.055Z,97362.72
2022-12-25T17:14:04.296Z,97369.94
2022-12-25T17:16:35.409Z,97367.47
2022-12-25T17:19:11.877Z,97374.03
2022-12-25T17:21:39.689Z,97374.28
2022-12-25T17:24:07.952Z,97377.53
2022-12-25T17:26:35.792Z,97373.66
2022-12-25T17:29:03.861Z,97374.66
2022-12-25T17:31:31.863Z,97384.78
2022-12-25T17:34:03.099Z,97388.47
2022-12-25T17:36:31.942Z,97391.59
2022-12-25T17:39:01.275Z,97403.75
2022-12-25T17:41:29.369Z,97413.03
2022-12-25T17:43:57.145Z,97404.56
2022-12-25T17:46:27.978Z,97397.09
2022-12-25T17:48:57.792Z,97393.97
2022-12-25T17:51:27.881Z,97390.44
2022-12-25T17:54:01.036Z,97397.84
2022-12-25T17:56:29.191Z,97399.06
2022-12-25T17:59:00.223Z,97400.09
2022-12-25T18:01:29.353Z,97403.19
2022-12-25T18:04:00.261Z,97410.78
2022-12-25T18:06:29.665Z,97404.78
2022-12-25T18:08:58.891Z,97410.97
2022-12-25T18:11:32.655Z,97415.72
2022-12-25T18:14:04.776Z,97421.97
2022-12-25T18:16:36.650Z,97420.72
2022-12-25T18:19:05.083Z,97414.28
2022-12-25T18:21:32.857Z,97418.19
2022-12-25T18:24:04.121Z,97404.34
2022-12-25T18:26:32.691Z,97411.56
2022-12-25T18:29:00.565Z,97416.69
2022-12-25T18:31:30.359Z,97410.88
2022-12-25T18:33:59.897Z,97416.66
2022-12-25T18:36:29.452Z,97425.09
2022-12-25T18:38:58.281Z,97426.50
2022-12-25T18:41:28.761Z,97434.75
2022-12-25T18:43:57.064Z,97430.81
2022-12-25T18:46:27.070Z,97428.31
2022-12-25T18:48:57.375Z,97438.22
2022-12-25T18:51:29.887Z,97436.94
2022-12-25T18:54:01.660Z,97442.69
2022-12-25T18:56:29.341Z,97452.78
2022-12-25T18:59:00.766Z,97454.63
2022-12-25T19:01:28.755Z,97461.88
2022-12-25T19:04:04.547Z,97462.25
2022-12-25T19:06:33.975Z,97456.25
2022-12-25T19:09:09.039Z,97453.13
2022-12-25T19:11:46.047Z,97447.13
2022-12-25T19:14:14.482Z,97449.16
2022-12-25T19:16:42.441Z,97452.84
2022-12-25T19:19:10.444Z,97451.22
2022-12-25T19:21:38.262Z,97446.03
2022-12-25T19:24:06.664Z,97442.34
2022-12-25T19:26:35.966Z,97447.09
2022-12-25T19:29:03.871Z,97448.09
2022-12-25T19:31:31.712Z,97447.47
2022-12-25T19:33:59.483Z,97442.28
2022-12-25T19:36:27.250Z,97434.44
2022-12-25T19:38:54.981Z,97432.59
2022-12-25T19:41:22.788Z,97437.97
2022-12-25T19:43:50.637Z,97429.28
2022-12-25T19:46:40.793Z,97427.63
2022-12-25T19:49:12.989Z,97434.44
2022-12-25T19:51:44.401Z,97434.66
2022-12-25T19:54:15.469Z,97437.69
2022-12-25T19:56:43.739Z,97440.75
2022-12-25T19:59:14.566Z,97449.19
2022-12-25T20:01:43.123Z,97443.19
2022-12-25T20:04:11.167Z,97439.69
2022-12-25T20:06:42.587Z,97448.94
2022-12-25T20:09:21.204Z,97453.91
2022-12-25T20:11:49.812Z,97454.09
2022-12-25T20:14:18.040Z,97451.63
2022-12-25T20:16:45.960Z,97455.34
2022-12-25T20:19:14.419Z,97447.28
2022-12-25T20:21:42.315Z,97460.88
2022-12-25T20:24:11.179Z,97449.97
2022-12-25T20:26:39.994Z,97447.66
2022-12-25T20:29:07.898Z,97456.53
2022-12-25T20:31:36.034Z,97457.38
2022-12-25T20:34:10.746Z,97453.66
2022-12-25T20:36:38.846Z,97453.03
2022-12-25T20:39:10.081Z,97448.88
2022-12-25T20:41:39.663Z,97441.66
2022-12-25T20:44:10.125Z,97441.66
2022-12-25T20:46:38.330Z,97448.03
2022-12-25T20:49:06.442Z,97451.56
2022-12-25T20:51:34.521Z,97453.59
2022-12-25T20:54:08.027Z,97455.25
2022-12-25T20:56:36.898Z,97458.97
2022-12-25T20:59:04.737Z,97456.81
2022-12-25T21:01:32.814Z,97452.50
2022-12-25T21:04:00.632Z,97454.97
2022-12-25T21:06:28.509Z,97457.03
2022-12-25T21:08:56.287Z,97470.59
2022-12-25T21:11:24.129Z,97468.09
2022-12-25T21:13:52.310Z,97469.97
2022-12-25T21:16:22.848Z,97462.75
2022-12-25T21:18:53.727Z,97459.88
2022-12-25T21:21:22.735Z,97466.88
2022-12-25T21:23:51.104Z,97463.38
2022-12-25T21:26:23.568Z,97466.06
2022-12-25T21:28:54.614Z,97467.75
2022-12-25T21:31:23.635Z,97459.03
2022-12-25T21:33:51.619Z,97454.53
2022-12-25T21:36:27.402Z,97454.97
2022-12-25T21:39:07.500Z,97456.66
2022-12-25T21:41:38.353Z,97449.44
2022-12-25T21:44:08.255Z,97462.84
2022-12-25T21:46:36.218Z,97455.44
2022-12-25T21:49:04.222Z,97461.19
2022-12-25T21:51:53.201Z,97459.34
2022-12-25T21:54:22.975Z,97463.88
2022-12-25T21:56:51.036Z,97471.91
2022-12-25T21:59:22.847Z,97473.38
2022-12-25T22:01:52.704Z,97476.22
2022-12-25T22:04:22.871Z,97473.38
2022-12-25T22:07:10.408Z,97475.03
2022-12-25T22:09:38.308Z,97481.22
2022-12-25T22:12:30.176Z,97480.41
2022-12-25T22:15:06.180Z,97471.97
2022-12-25T22:17:56.382Z,97478.34
2022-12-25T22:20:34.640Z,97488.88
2022-12-25T22:23:03.264Z,97490.91
2022-12-25T22:25:31.007Z,97487.41
2022-12-25T22:27:58.841Z,97490.72
2022-12-25T22:30:29.513Z,97491.56
2022-12-25T22:32:58.203Z,97487.84
2022-12-25T22:35:25.967Z,97491.56
2022-12-25T22:37:54.259Z,97490.72
2022-12-25T22:40:22.557Z,97489.91
2022-12-25T22:42:53.680Z,97497.75
2022-12-25T22:45:21.465Z,97490.91
2022-12-25T22:47:49.499Z,97496.94
2022-12-25T22:50:17.342Z,97492.56
2022-12-25T22:52:46.589Z,97500.25
2022-12-25T22:55:18.987Z,97502.53
2022-12-25T22:57:46.838Z,97500.03
2022-12-25T23:00:14.854Z,97500.25
2022-12-25T23:02:42.852Z,97505.59
2022-12-25T23:05:10.836Z,97511.31
2022-12-25T23:07:38.813Z,97506.97
2022-12-25T23:10:07.834Z,97521.03
2022-12-25T23:12:53.843Z,97516.50
2022-12-25T23:15:21.772Z,97524.34
2022-12-25T23:18:08.030Z,97526.19
2022-12-25T23:20:55.170Z,97527.84
2022-12-25T23:23:42.582Z,97526.56
2022-12-25T23:26:11.455Z,97531.47
2022-12-25T23:29:01.053Z,97526.31
2022-12-25T23:31:34.022Z,97524.63
2022-12-25T23:34:02.771Z,97521.22
2022-12-25T23:36:30.655Z,97526.75
2022-12-25T23:39:04.897Z,97531.28
2022-12-25T23:41:37.296Z,97546.28
2022-12-25T23:44:05.137Z,97536.00
2022-12-25T23:46:32.908Z,97537.47
2022-12-25T23:49:00.682Z,97548.00
2022-12-25T23:51:28.607Z,97547.63
2022-12-25T23:53:56.462Z,97536.34
2022-12-25T23:56:24.475Z,97538.88
2022-12-25T23:58:52.219Z,97539.34
